Dobbins Air Reserve Base Airport Marietta US
ICAO: KMGE
IATA: MGE
Category: Large
Scheduled Services: No

Elevation: 1068 ft
TransAlt. 18000 ft.

Airport Communications:
ATLANTA APP/DEP:121
ATIS:26.95
GND:125.3
NAVY OPS:34.02
ARNG OPS:47
PMSV METRO:27.475
94AW COMD POST:37.952
PTD:139.3
TWR:120.75

KMGE Zoom In..

If you have problems with the map follow the link
https://www.worldairports.se/pages/airport.php?
ICAO=KMGE

Runways:

(A) RW 11 length 10002 ft width 300 ft
ILS 109.70 / hdg 109

(B) RW 29 length 10002 ft width 300 ft
ILS 111.35 / hdg 289

Location; KMGE
Day. 18 / Time. 06.56 Zulu
* Altimeter: 30.29
* Temperature: 14° c. 57.2°f.
* Wind from: 320° Speed 07 kn.
Dewpoint: 07° c.
Visibility: 10 Statute Miles.
Clouds: Broken 14000 ft.

KMGE 180656Z AUTO 32007KT 10SM BKN140 14/07 A3029 RMK AO2 SLP253 T01440072 $


Wind From 320°
Speed 07 kn.

 
 
jpsmedia.com for Web Design worldairports.se 2018   terms of use